Terminal Aerodrome Forecast
Issued by NWS

Home | Current Version | Previous Version | Text Only | Print | Product List | Glossary On
Versions: 1 2 3 4 5 6 7 8 9 10 11 12 13 14 15
084
FTUS43 KOAX 281138
TAFBFF
TAF
KBFF 281138Z 2812/2912 29007KT P6SM SKC
     FM282000 30010KT P6SM VCTS BKN080CB
     FM290300 12010KT P6SM BKN080=

USA.gov is the U.S. government's official web portal to all federal, state and local government web resources and services.